KCLW/CLW METAR and TAF weather

Enter ICAO airport designator
Station Type Date Time Source
KCLW METAR 2021/07/29 19:15 UTC NOAA

KCLW 291915Z AUTO 00000KT 10SM -DZ SCT007 SCT033 BKN048 25/23 A3003 RMK AO2


Station Type Date Time Source
KCLW Decoded METAR 2021/07/29 19:15 UTC NOAA

Station name not available
Jul 29, 2021 - 03:15 PM EDT / 2021.07.29 1915 UTC
Wind: Calm:0
Visibility: 10 mile(s):0
Sky conditions: mostly cloudy
Weather: light drizzle
Temperature: 77 F (25 C)
Dew Point: 73 F (23 C)
Relative Humidity: 88%
Pressure (altimeter): 30.03 in. Hg (1016 hPa)
ob: KCLW 291915Z AUTO 00000KT 10SM -DZ SCT007 SCT033 BKN048 25/23 A3003 RMK AO2
cycle: 19

Station Type Date Time Source
KCLW TAF UTC NOAA

Error!

Example: see airport list